Time;durP1;ratioP1;P1;durP2;ratioP2;P2;SDS_P1;SDS_P2;PMS_P1;PMS_P2;Temp;Humidity;BMP_temperature;BMP_pressure;BME280_temperature;BME280_humidity;BME280_pressure;Samples;Min_cycle;Max_cycle;Signal;HPM_P1;HPM_P2
2022/05/21 00:02:16;;;;;;;22.05;2.70;;;;;;;-144.47;60.40;53330.81;5030817;28;20028;-66
2022/05/21 00:04:42;;;;;;;5.18;3.08;;;;;;;-144.47;60.60;53332.81;5043192;28;20680;-68
2022/05/21 00:07:10;;;;;;;6.13;2.45;;;;;;;-144.47;60.61;53283.13;5038575;28;20033;-66
2022/05/21 00:09:36;;;;;;;8.90;2.20;;;;;;;-144.47;59.77;53305.00;5050193;28;20055;-67
2022/05/21 00:12:02;;;;;;;3.90;2.30;;;;;;;-144.47;59.61;53308.97;5035495;28;20048;-68
2022/05/21 00:14:29;;;;;;;9.82;2.58;;;;;;;-144.47;58.40;53287.13;5051195;28;20047;-67
2022/05/21 00:16:54;;;;;;;2.80;1.83;;;;;;;-144.47;58.22;53287.13;5028804;28;20457;-68
2022/05/21 00:19:19;;;;;;;7.43;2.28;;;;;;;-144.47;57.98;53303.00;5035698;28;20621;-68
2022/05/21 00:21:45;;;;;;;4.53;1.92;;;;;;;-144.47;57.83;53332.81;5034878;28;20098;-68
2022/05/21 00:24:10;;;;;;;3.38;1.90;;;;;;;-144.47;57.63;53320.88;5038558;28;20033;-67
2022/05/21 00:26:35;;;;;;;5.78;1.73;;;;;;;-144.47;58.12;53275.19;5044309;28;20024;-64
2022/05/21 00:29:01;;;;;;;4.47;1.65;;;;;;;-144.47;57.68;53287.13;5050456;28;20052;-67
2022/05/21 00:31:26;;;;;;;2.20;1.40;;;;;;;-144.47;57.97;53265.25;5045519;23;20013;-70
2022/05/21 00:33:52;;;;;;;8.80;1.92;;;;;;;-144.47;58.46;53263.28;5046738;28;20551;-70
2022/05/21 00:36:18;;;;;;;12.55;2.10;;;;;;;-144.47;58.37;53332.81;5030438;28;20509;-70
2022/05/21 00:38:44;;;;;;;7.80;2.03;;;;;;;-144.47;58.66;53332.81;5027147;28;20123;-70
2022/05/21 00:41:12;;;;;;;4.57;1.85;;;;;;;-144.47;58.15;53314.91;5021881;28;20493;-70
2022/05/21 00:43:58;;;;;;;5.70;1.67;;;;;;;-144.47;58.21;53253.34;5010669;28;20013;-70
2022/05/21 00:46:29;;;;;;;4.47;1.55;;;;;;;-144.47;58.28;53277.19;4998515;28;20121;-73
2022/05/21 00:49:20;;;;;;;5.97;1.50;;;;;;;-144.47;57.87;53293.06;5010267;28;20575;-71
2022/05/21 00:52:00;;;;;;;5.90;2.08;;;;;;;-144.47;57.85;53305.00;5010096;28;20029;-72
2022/05/21 00:54:34;;;;;;;3.55;1.73;;;;;;;-144.47;58.15;53289.09;5030578;28;20021;-70
2022/05/21 00:57:22;;;;;;;4.45;1.70;;;;;;;-144.47;58.26;53281.16;5023808;28;20092;-72
2022/05/21 00:59:53;;;;;;;2.67;1.20;;;;;;;-144.47;58.35;53287.13;5029988;28;20101;-70
2022/05/21 01:02:31;;;;;;;3.90;1.60;;;;;;;-144.47;57.90;53322.88;5010974;28;20037;-70
2022/05/21 01:04:59;;;;;;;5.65;1.20;;;;;;;-144.47;57.12;53305.00;5024725;28;20056;-70
2022/05/21 01:07:25;;;;;;;4.13;1.70;;;;;;;-144.47;56.79;53289.09;5026226;28;20033;-70
2022/05/21 01:09:56;;;;;;;9.35;1.52;;;;;;;-144.47;56.37;53287.13;5015768;28;20547;-71
2022/05/21 01:12:24;;;;;;;5.78;2.05;;;;;;;-144.47;56.44;53310.94;5018075;28;20059;-70
2022/05/21 01:14:52;;;;;;;4.25;2.10;;;;;;;-144.47;55.95;53283.13;5030071;28;20029;-69
2022/05/21 01:17:20;;;;;;;9.35;2.00;;;;;;;-144.47;56.51;53303.00;5027212;28;20468;-70
2022/05/21 01:20:04;;;;;;;7.38;2.42;;;;;;;-144.47;56.76;53293.06;5011493;28;20109;-70
2022/05/21 01:22:42;;;;;;;5.18;2.03;;;;;;;-144.47;57.06;53334.78;5019998;28;20034;-69
2022/05/21 01:25:08;;;;;;;4.78;2.22;;;;;;;-144.47;57.00;53303.00;5011663;28;20029;-70
2022/05/21 01:27:34;;;;;;;8.77;2.28;;;;;;;-144.47;57.53;53332.81;5009505;28;20041;-71
2022/05/21 01:30:02;;;;;;;4.80;2.63;;;;;;;-144.47;57.44;53301.03;5002571;28;20374;-70
2022/05/21 01:32:28;;;;;;;10.05;2.70;;;;;;;-144.47;57.60;53265.25;5004133;28;20516;-68
2022/05/21 01:34:53;;;;;;;8.60;2.95;;;;;;;-144.47;57.87;53275.19;5017113;28;20041;-70
2022/05/21 01:37:19;;;;;;;10.27;2.78;;;;;;;-144.47;57.98;53308.97;5017947;28;20030;-71
2022/05/21 01:39:44;;;;;;;13.00;3.00;;;;;;;-144.47;58.43;53332.81;5029259;28;20032;-71
2022/05/21 01:42:09;;;;;;;6.15;2.70;;;;;;;-144.47;58.47;53330.81;5027532;28;20541;-71
2022/05/21 01:44:37;;;;;;;6.50;3.20;;;;;;;-144.47;58.48;53289.09;5017207;28;20112;-71
2022/05/21 01:47:04;;;;;;;5.32;2.97;;;;;;;-144.47;58.07;53314.91;5016331;28;20053;-69
2022/05/21 01:49:30;;;;;;;8.18;3.30;;;;;;;-144.47;58.26;53332.81;5016970;28;20105;-71
2022/05/21 01:51:55;;;;;;;5.88;3.20;;;;;;;-144.47;58.37;53299.03;5004701;28;20105;-72
2022/05/21 01:54:20;;;;;;;9.52;5.10;;;;;;;-144.47;58.65;53271.22;5021747;28;20017;-68
2022/05/21 01:56:46;;;;;;;9.88;3.20;;;;;;;-144.47;58.88;53324.84;4999338;28;20360;-70
2022/05/21 01:59:11;;;;;;;5.65;3.05;;;;;;;-144.47;59.17;53320.88;5013275;28;20071;-69
2022/05/21 02:01:36;;;;;;;11.52;3.00;;;;;;;-144.47;59.03;53312.94;5009960;28;20026;-69
2022/05/21 02:04:02;;;;;;;8.93;3.30;;;;;;;-144.47;59.00;53305.00;5021443;28;20025;-71
2022/05/21 02:06:28;;;;;;;6.32;3.13;;;;;;;-144.47;58.90;53310.94;5009223;28;20030;-69
2022/05/21 02:08:53;;;;;;;6.80;3.30;;;;;;;-144.47;58.56;53320.88;5009435;28;20025;-72
2022/05/21 02:11:18;;;;;;;6.70;3.83;;;;;;;-144.47;58.40;53297.03;5009588;28;20404;-71
2022/05/21 02:13:44;;;;;;;8.10;3.65;;;;;;;-144.47;58.71;53299.03;5022424;28;20026;-71
2022/05/21 02:16:09;;;;;;;7.53;3.28;;;;;;;-144.47;58.96;53326.84;5021444;28;20022;-70
2022/05/21 02:18:34;;;;;;;6.75;3.35;;;;;;;-144.47;58.33;53318.91;5027953;28;20025;-72
2022/05/21 02:21:00;;;;;;;8.68;4.20;;;;;;;-144.47;58.80;53328.81;5015715;28;20083;-70
2022/05/21 02:23:25;;;;;;;5.90;3.55;;;;;;;-144.47;58.78;53332.81;5022080;28;20438;-69
2022/05/21 02:25:51;;;;;;;9.40;3.75;;;;;;;-144.47;58.84;53340.75;5009225;28;20030;-71
2022/05/21 02:28:17;;;;;;;8.43;3.80;;;;;;;-144.47;59.05;53324.84;5008757;28;20040;-71
2022/05/21 02:30:43;;;;;;;9.48;3.58;;;;;;;-144.47;59.39;53308.97;5002210;28;20661;-71
2022/05/21 02:33:10;;;;;;;7.80;3.92;;;;;;;-144.47;58.92;53320.88;5010752;28;20021;-69
2022/05/21 02:35:35;;;;;;;6.93;3.95;;;;;;;-144.47;58.27;53342.72;5022690;28;20021;-69
2022/05/21 02:40:45;;;;;;;5.63;3.47;;;;;;;-144.47;56.19;53305.00;5001865;28;20065;-71
2022/05/21 02:43:10;;;;;;;6.70;3.47;;;;;;;-144.47;56.48;53308.97;5007435;28;20050;-72
2022/05/21 02:45:35;;;;;;;7.55;3.78;;;;;;;-144.47;56.19;53330.81;5023219;28;20056;-71
2022/05/21 02:48:01;;;;;;;6.15;3.40;;;;;;;-144.47;56.54;53364.59;5020421;28;20029;-70
2022/05/21 02:50:32;;;;;;;6.97;3.83;;;;;;;-144.47;56.79;53330.81;5019352;28;20504;-73
2022/05/21 02:52:58;;;;;;;10.63;3.42;;;;;;;-144.47;57.04;53326.84;5023960;28;20068;-70
2022/05/21 02:55:24;;;;;;;8.73;3.35;;;;;;;-144.47;57.42;53287.13;5028852;28;20444;-71
2022/05/21 02:57:49;;;;;;;11.48;4.10;;;;;;;-144.47;57.96;53328.81;5032591;28;20076;-71
2022/05/21 03:00:21;;;;;;;10.25;4.00;;;;;;;-144.47;57.56;53312.94;5015117;28;20038;-71
2022/05/21 03:02:47;;;;;;;12.18;4.57;;;;;;;-144.47;57.75;53312.94;5030166;28;20053;-71
2022/05/21 03:05:13;;;;;;;8.63;4.35;;;;;;;-144.47;56.90;53330.81;5029460;28;20118;-70
2022/05/21 03:07:40;;;;;;;9.27;4.35;;;;;;;-144.47;56.59;53336.78;5012577;28;20025;-69
2022/05/21 03:10:22;;;;;;;5.78;3.67;;;;;;;-144.47;56.14;53308.97;5015909;28;20532;-71
2022/05/21 03:13:02;;;;;;;8.65;4.18;;;;;;;-144.47;55.87;53342.72;5031199;28;20082;-71
2022/05/21 03:15:34;;;;;;;10.90;3.85;;;;;;;-144.47;55.89;53295.06;5007250;28;20029;-70
2022/05/21 03:18:00;;;;;;;12.20;4.05;;;;;;;-144.47;55.76;53332.81;5016636;28;20022;-71
2022/05/21 03:20:26;;;;;;;9.95;4.03;;;;;;;-144.47;55.98;53334.78;5005923;28;20083;-71
2022/05/21 03:22:51;;;;;;;8.82;3.40;;;;;;;-144.47;55.79;53324.84;5012174;28;20025;-72
2022/05/21 03:25:17;;;;;;;8.63;3.40;;;;;;;-144.47;55.48;53344.72;5012349;28;20045;-69
2022/05/21 03:27:43;;;;;;;10.57;3.30;;;;;;;-144.47;55.32;53289.09;5025329;28;20022;-70
2022/05/21 03:30:12;;;;;;;6.93;3.17;;;;;;;-144.47;55.22;53306.97;5010919;28;20026;-71
2022/05/21 03:32:37;;;;;;;7.32;2.90;;;;;;;-144.47;55.20;53318.91;5025214;28;20050;-70
2022/05/21 03:35:04;;;;;;;4.75;2.58;;;;;;;-144.47;55.00;53328.81;5018851;28;20076;-70
2022/05/21 03:37:29;;;;;;;4.95;2.20;;;;;;;-144.47;55.14;53301.03;5032113;28;20028;-71
2022/05/21 03:39:54;;;;;;;7.03;2.50;;;;;;;-144.47;55.02;53364.59;5017750;28;20030;-70
2022/05/21 03:42:20;;;;;;;6.60;2.53;;;;;;;-144.47;55.20;53320.88;5018729;28;20033;-70
2022/05/21 03:44:46;;;;;;;5.70;2.22;;;;;;;-144.47;55.39;53332.81;5011508;28;20087;-70
2022/05/21 03:47:12;;;;;;;4.40;2.28;;;;;;;-144.47;55.59;53308.97;5009614;28;20117;-71
2022/05/21 03:49:37;;;;;;;4.68;2.25;;;;;;;-144.47;55.57;53301.03;5010799;28;20527;-70
2022/05/21 03:52:03;;;;;;;6.15;2.25;;;;;;;-144.47;55.87;53328.81;5024102;28;20042;-69
2022/05/21 03:54:28;;;;;;;6.25;2.33;;;;;;;-144.47;55.75;53289.09;5024543;28;20033;-70
2022/05/21 03:56:55;;;;;;;6.78;2.63;;;;;;;-144.47;56.00;53356.63;5003559;28;20188;-71
2022/05/21 03:59:20;;;;;;;5.47;2.58;;;;;;;-144.47;55.59;53305.00;5010912;28;20032;-71
2022/05/21 04:01:46;;;;;;;5.03;2.08;;;;;;;-144.47;55.61;53308.97;5023620;28;20050;-71
2022/05/21 04:04:11;;;;;;;6.50;2.38;;;;;;;-144.47;55.66;53324.84;5024704;28;20037;-72
2022/05/21 04:06:37;;;;;;;9.45;1.98;;;;;;;-144.47;55.77;53372.53;5024861;28;20040;-72
2022/05/21 04:09:03;;;;;;;7.13;2.10;;;;;;;-144.47;56.05;53328.81;5011799;28;20030;-70
2022/05/21 04:11:29;;;;;;;4.97;2.22;;;;;;;-144.47;56.34;53340.75;5011202;28;20022;-72
2022/05/21 04:13:54;;;;;;;7.35;2.60;;;;;;;-144.47;56.35;53340.75;5011391;28;20353;-70
2022/05/21 04:16:20;;;;;;;6.75;2.15;;;;;;;-144.47;56.51;53326.84;5026466;28;20568;-69
2022/05/21 04:18:46;;;;;;;6.53;2.47;;;;;;;-144.47;56.25;53324.84;5026355;28;20044;-68
2022/05/21 04:21:11;;;;;;;5.15;2.63;;;;;;;-144.47;56.69;53320.88;5018513;28;20038;-69
2022/05/21 04:23:36;;;;;;;10.98;3.13;;;;;;;-144.47;56.46;53332.81;5015611;28;20032;-68
2022/05/21 04:26:02;;;;;;;8.00;2.88;;;;;;;-144.47;56.76;53356.63;5029570;28;20029;-70
2022/05/21 04:28:27;;;;;;;6.47;3.05;;;;;;;-144.47;56.54;53332.81;5030788;28;20041;-72
2022/05/21 04:30:52;;;;;;;5.82;2.75;;;;;;;-144.47;56.61;53287.13;5016480;28;20054;-70
2022/05/21 04:33:18;;;;;;;7.55;2.88;;;;;;;-144.47;56.56;53360.63;5011578;28;20024;-70
2022/05/21 04:38:27;;;;;;;5.55;2.30;;;;;;;-144.47;56.25;53336.78;5024172;28;20037;-70
2022/05/21 04:40:53;;;;;;;4.97;2.60;;;;;;;-144.47;56.19;53324.84;5008901;28;20026;-71
2022/05/21 04:43:18;;;;;;;6.25;2.70;;;;;;;-144.47;56.49;53348.69;5016827;28;20021;-68
2022/05/21 04:45:43;;;;;;;10.88;2.33;;;;;;;-144.47;56.14;53342.72;5017930;28;20033;-68
2022/05/21 04:48:09;;;;;;;8.55;2.70;;;;;;;-144.47;56.36;53310.94;5016870;28;20051;-71
2022/05/21 04:50:36;;;;;;;8.05;2.53;;;;;;;-144.47;56.09;53332.81;5028672;28;20400;-68
2022/05/21 04:53:02;;;;;;;10.45;2.38;;;;;;;-144.47;56.45;53312.94;5024279;28;20049;-69
2022/05/21 04:55:27;;;;;;;12.63;2.58;;;;;;;-144.47;56.13;53350.69;5010322;28;20596;-66
2022/05/21 04:57:52;;;;;;;7.43;2.10;;;;;;;-144.47;56.49;53342.72;5008398;28;20053;-68
2022/05/21 05:00:18;;;;;;;7.65;2.10;;;;;;;-144.47;56.13;53328.81;5007113;28;20041;-68
2022/05/21 05:02:43;;;;;;;5.55;2.05;;;;;;;-144.47;56.00;53332.81;5001950;28;20034;-68
2022/05/21 05:05:09;;;;;;;6.10;2.03;;;;;;;-144.47;55.94;53322.88;5023156;28;20041;-70
2022/05/21 05:07:34;;;;;;;5.07;2.10;;;;;;;-144.47;55.84;53332.81;4999552;28;20168;-69
2022/05/21 05:09:59;;;;;;;5.93;2.13;;;;;;;-144.47;55.79;53354.66;5005708;28;20026;-69
2022/05/21 05:12:25;;;;;;;3.53;1.67;;;;;;;-144.47;55.95;53360.63;5026072;28;20091;-70
2022/05/21 05:14:50;;;;;;;3.78;1.90;;;;;;;-144.47;55.76;53328.81;5029976;28;20060;-69
2022/05/21 05:17:16;;;;;;;3.25;1.80;;;;;;;-144.47;55.61;53354.66;5012241;28;20456;-72
2022/05/21 05:19:41;;;;;;;3.97;1.60;;;;;;;-144.47;55.77;53340.75;5011230;28;20025;-70
2022/05/21 05:22:10;;;;;;;5.22;1.83;;;;;;;-144.47;55.10;53316.91;5011626;28;20026;-68
2022/05/21 05:24:38;;;;;;;4.85;1.70;;;;;;;-144.47;55.17;53362.59;5009278;28;20064;-70
2022/05/21 05:27:04;;;;;;;6.57;1.67;;;;;;;-144.47;54.91;53328.81;5026944;28;20803;-68
2022/05/21 05:29:30;;;;;;;3.60;1.70;;;;;;;-144.47;54.57;53350.69;5009649;28;20026;-70
2022/05/21 05:31:55;;;;;;;4.72;1.60;;;;;;;-144.47;54.82;53350.69;5020871;28;20108;-71
2022/05/21 05:34:21;;;;;;;4.75;1.88;;;;;;;-144.47;54.68;53354.66;5030087;28;20101;-70
2022/05/21 05:36:47;;;;;;;6.03;2.05;;;;;;;-144.47;54.17;53303.00;5029297;28;20037;-68
2022/05/21 05:39:13;;;;;;;3.08;1.90;;;;;;;-144.47;54.58;53328.81;5009820;28;20116;-68
2022/05/21 05:41:39;;;;;;;5.38;1.70;;;;;;;-144.47;54.03;53376.50;5009740;28;20034;-70
2022/05/21 05:44:04;;;;;;;4.10;1.70;;;;;;;-144.47;53.83;53336.78;5009381;28;20082;-69
2022/05/21 05:46:30;;;;;;;6.55;1.95;;;;;;;-144.47;53.56;53328.81;5029118;28;20095;-70
2022/05/21 05:48:55;;;;;;;7.10;1.88;;;;;;;-144.47;53.89;53305.00;5025340;28;20485;-71
2022/05/21 05:51:21;;;;;;;5.43;1.67;;;;;;;-144.47;53.73;53314.91;5027993;28;20029;-71
2022/05/21 05:53:47;;;;;;;4.25;1.80;;;;;;;-144.47;53.33;53344.72;5013338;28;20033;-70
2022/05/21 05:56:13;;;;;;;5.38;2.08;;;;;;;-144.47;53.34;53328.81;5005280;28;20125;-69
2022/05/21 06:01:25;;;;;;;6.00;2.58;;;;;;;-144.47;52.66;53316.91;5008758;28;20036;-70
2022/05/21 06:03:51;;;;;;;5.75;2.30;;;;;;;-144.47;52.96;53340.75;5008166;28;20030;-71
2022/05/21 06:06:16;;;;;;;7.07;2.40;;;;;;;-144.47;52.94;53328.81;5016363;28;20120;-71
2022/05/21 06:08:43;;;;;;;7.25;2.55;;;;;;;-144.47;52.51;53303.00;5013651;28;20040;-72
2022/05/21 06:11:09;;;;;;;4.13;1.90;;;;;;;-144.47;52.54;53308.97;5008986;28;20164;-70
2022/05/21 06:13:35;;;;;;;5.90;2.30;;;;;;;-144.47;52.49;53306.97;5018843;28;20112;-71
2022/05/21 06:16:00;;;;;;;4.88;2.55;;;;;;;-144.47;51.99;53328.81;5010316;28;20069;-71
2022/05/21 06:18:26;;;;;;;10.60;2.42;;;;;;;-144.47;52.19;53293.06;5009023;28;20030;-70
2022/05/21 06:20:51;;;;;;;6.22;2.42;;;;;;;-144.47;51.64;53326.84;5007500;28;20030;-71
2022/05/21 06:23:18;;;;;;;5.43;2.17;;;;;;;-144.47;51.68;53320.88;5011007;28;20404;-71
2022/05/21 06:25:43;;;;;;;7.93;2.75;;;;;;;-144.47;52.37;53297.03;5012614;28;20501;-69
2022/05/21 06:28:09;;;;;;;8.50;3.67;;;;;;;-144.47;52.19;53297.03;5010520;28;20029;-69
2022/05/21 06:30:37;;;;;;;8.02;3.38;;;;;;;-144.47;51.72;53320.88;5008284;28;20539;-70
2022/05/21 06:33:34;;;;;;;6.28;2.95;;;;;;;-144.47;51.87;53356.63;5046797;22;20049;-89
2022/05/21 06:49:29;;;;;;;6.30;4.03;;;;;;;-144.47;50.48;53312.94;4978686;28;20143;-88
2022/05/21 06:52:02;;;;;;;6.13;2.43;;;;;;;-144.47;49.93;53306.97;4961549;28;20059;-87
2022/05/21 06:54:43;;;;;;;6.60;2.20;;;;;;;-144.47;49.32;53293.06;4976849;28;20148;-87
2022/05/21 06:57:13;;;;;;;5.10;2.15;;;;;;;-144.47;49.63;53301.03;4961084;28;20095;-88
2022/05/21 06:59:47;;;;;;;10.38;2.78;;;;;;;-144.47;49.80;53342.72;4976391;28;20105;-89
2022/05/21 07:03:04;;;;;;;6.95;2.40;;;;;;;-144.47;50.28;53312.94;4960890;28;20039;-90
2022/05/21 07:08:32;;;;;;;4.68;1.85;;;;;;;-144.47;48.49;53322.88;4978743;28;20049;-89
2022/05/21 07:20:37;;;;;;;7.93;1.85;;;;;;;-144.47;47.82;53336.78;4899535;29;20070;-89
2022/05/21 07:23:06;;;;;;;8.10;2.20;;;;;;;-144.47;47.95;53324.84;4904610;29;20039;-87
2022/05/21 07:25:36;;;;;;;6.85;2.00;;;;;;;-144.47;48.12;53316.91;4937610;29;20079;-88
2022/05/21 07:28:04;;;;;;;3.45;1.77;;;;;;;-144.47;48.20;53287.13;4943052;29;20039;-88
2022/05/21 07:30:30;;;;;;;8.52;2.38;;;;;;;-144.47;49.06;53289.09;4946263;29;20114;-88
2022/05/21 07:32:56;;;;;;;5.78;2.00;;;;;;;-144.47;47.42;53269.22;4937491;29;20071;-89
2022/05/21 07:35:24;;;;;;;7.78;2.20;;;;;;;-144.47;47.07;53314.91;4939532;29;20035;-88
2022/05/21 07:37:52;;;;;;;11.97;2.60;;;;;;;-144.47;47.19;53295.06;4938108;29;20039;-88
2022/05/21 07:40:24;;;;;;;6.35;2.20;;;;;;;-144.47;46.78;53285.13;4952591;29;20031;-89
2022/05/21 07:42:50;;;;;;;4.85;2.03;;;;;;;-144.47;47.21;53285.13;4959834;29;20042;-88
2022/05/21 07:45:21;;;;;;;6.22;2.05;;;;;;;-144.47;46.44;53283.13;4962702;29;20038;-88
2022/05/21 07:47:48;;;;;;;7.38;2.70;;;;;;;-144.47;46.72;53312.94;5021305;28;20140;-89
2022/05/21 07:50:14;;;;;;;9.45;2.50;;;;;;;-144.47;46.33;53265.25;5036035;28;20108;-86
2022/05/21 07:52:41;;;;;;;5.05;1.98;;;;;;;-144.47;46.70;53283.13;5035651;28;20080;-88
2022/05/21 07:55:11;;;;;;;5.30;2.78;;;;;;;-144.47;45.89;53301.03;5052057;28;20050;-90
2022/05/21 07:57:37;;;;;;;6.13;2.08;;;;;;;-144.47;47.00;53265.25;5036457;28;20033;-89
2022/05/21 08:00:07;;;;;;;5.32;2.50;;;;;;;-144.47;47.84;53330.81;5036112;28;20017;-90
2022/05/21 08:02:41;;;;;;;6.05;2.83;;;;;;;-144.47;47.71;53314.91;5036989;28;20062;-88
2022/05/21 08:05:11;;;;;;;6.97;3.00;;;;;;;-144.47;47.04;53279.16;5027271;22;20050;-65
2022/05/21 08:07:37;;;;;;;;;;;;;;;-144.47;46.60;53271.22;4985781;28;20036;-66
2022/05/21 08:10:04;;;;;;;5.93;2.40;;;;;;;-144.47;46.05;53318.91;5002058;28;20137;-64
2022/05/21 08:12:29;;;;;;;5.38;2.35;;;;;;;-144.47;46.30;53283.13;4992396;28;20049;-64
2022/05/21 08:14:54;;;;;;;5.80;2.42;;;;;;;-144.47;46.78;53273.22;5006988;28;20072;-65
2022/05/21 08:17:20;;;;;;;4.40;2.70;;;;;;;-144.47;46.81;53293.06;5004024;28;20046;-63
2022/05/21 08:19:45;;;;;;;8.45;2.45;;;;;;;-144.47;46.58;53283.13;5006616;28;20022;-68
2022/05/21 08:27:38;;;;;;;7.97;2.75;;;;;;;-144.47;46.27;53273.22;5010846;28;20520;-64
2022/05/21 08:30:04;;;;;;;6.85;2.85;;;;;;;-144.47;46.08;53281.16;5010553;28;20053;-65
2022/05/21 08:32:30;;;;;;;4.90;2.30;;;;;;;-144.47;45.98;53281.16;4996974;28;20014;-67
2022/05/21 08:34:55;;;;;;;5.22;2.40;;;;;;;-144.47;45.73;53287.13;5011230;28;20036;-66
2022/05/21 08:37:20;;;;;;;9.65;2.80;;;;;;;-144.47;45.75;53312.94;5010971;28;20091;-67
2022/05/21 08:39:47;;;;;;;6.00;2.85;;;;;;;-144.47;46.00;53281.16;5010583;28;20053;-66
2022/05/21 08:42:25;;;;;;;7.38;2.67;;;;;;;-144.47;46.15;53312.94;5005793;28;20025;-67
2022/05/21 08:44:58;;;;;;;8.05;2.97;;;;;;;-144.47;46.27;53295.06;5004235;28;20026;-66
2022/05/21 08:47:30;;;;;;;6.53;2.55;;;;;;;-144.47;45.64;53285.13;5010570;28;20034;-66
2022/05/21 08:50:09;;;;;;;5.03;2.38;;;;;;;-144.47;46.18;53306.97;5004806;28;20101;-65
2022/05/21 08:52:53;;;;;;;5.05;2.30;;;;;;;-144.47;45.20;53269.22;5003793;28;20018;-66
2022/05/21 08:55:22;;;;;;;4.88;1.95;;;;;;;-144.47;45.36;53301.03;5005104;28;20037;-66
2022/05/21 08:57:52;;;;;;;9.15;2.15;;;;;;;-144.47;44.87;53303.00;4999807;28;20040;-66
2022/05/21 09:00:23;;;;;;;6.03;2.05;;;;;;;-144.47;45.14;53265.25;5002417;28;20030;-66
2022/05/21 09:02:50;;;;;;;11.65;2.30;;;;;;;-144.47;45.37;53267.25;5003318;28;20041;-67
2022/05/21 09:05:18;;;;;;;2.78;1.60;;;;;;;-144.47;45.86;53279.16;5000842;28;20507;-66
2022/05/21 09:08:13;;;;;;;6.35;2.05;;;;;;;-144.47;45.50;53273.22;5001017;28;20037;-66
2022/05/21 09:11:01;;;;;;;8.38;1.77;;;;;;;-144.47;45.14;53301.03;5010316;28;20037;-67
2022/05/21 09:13:53;;;;;;;4.95;1.48;;;;;;;-144.47;45.94;53283.13;5006492;28;20050;-64
2022/05/21 09:19:06;;;;;;;5.15;1.73;;;;;;;-144.47;45.78;53275.19;5009576;28;20173;-66
2022/05/21 09:21:34;;;;;;;7.38;2.22;;;;;;;-144.47;45.36;53281.16;5006241;28;20073;-67
2022/05/21 09:24:03;;;;;;;7.30;2.20;;;;;;;-144.47;45.16;53265.25;5007901;28;20029;-65
2022/05/21 09:26:44;;;;;;;4.38;1.88;;;;;;;-144.47;45.61;53273.22;5003924;28;20105;-67
2022/05/21 09:29:33;;;;;;;6.32;2.25;;;;;;;-144.47;45.04;53289.09;5004441;28;20023;-64
2022/05/21 09:31:58;;;;;;;7.75;2.05;;;;;;;-144.47;46.32;53277.19;4999934;28;20037;-64
2022/05/21 09:34:33;;;;;;;4.28;1.88;;;;;;;-144.47;45.77;53267.25;5001645;28;20041;-65
2022/05/21 09:37:00;;;;;;;6.40;2.28;;;;;;;-144.47;45.30;53305.00;4992845;28;20109;-66
2022/05/21 09:39:32;;;;;;;7.13;2.17;;;;;;;-144.47;45.98;53301.03;5007150;28;20068;-66
2022/05/21 09:45:22;;;;;;;5.45;1.90;;;;;;;-144.47;45.91;53289.09;4999671;28;20026;-65
2022/05/21 09:45:22;;;;;;;5.22;2.00;;;;;;;-144.47;46.34;53273.22;5005627;28;20041;-65
2022/05/21 09:48:06;;;;;;;11.52;2.53;;;;;;;-144.47;47.36;53265.25;4997576;28;20033;-68
2022/05/21 09:50:58;;;;;;;3.20;1.90;;;;;;;-144.47;46.32;53293.06;4997715;28;20045;-65
2022/05/21 09:53:28;;;;;;;8.05;1.90;;;;;;;-144.47;45.84;53293.06;5007116;28;20018;-67
2022/05/21 09:56:09;;;;;;;6.10;1.90;;;;;;;-144.47;45.47;53287.13;4997336;28;20406;-65
2022/05/21 09:58:46;;;;;;;4.22;1.90;;;;;;;-144.47;45.32;53279.16;5003194;28;20112;-66
2022/05/21 10:01:16;;;;;;;9.55;2.70;;;;;;;-144.47;45.54;53259.31;5007332;28;20105;-66
2022/05/21 10:03:50;;;;;;;8.88;3.05;;;;;;;-144.47;45.51;53287.13;5008254;28;20026;-65
2022/05/21 10:06:28;;;;;;;7.05;2.78;;;;;;;-144.47;45.72;53265.25;5008467;28;20055;-64
2022/05/21 10:12:15;;;;;;;5.13;2.10;;;;;;;-144.47;45.18;53253.34;5002720;28;20125;-64
2022/05/21 10:15:12;;;;;;;9.02;2.67;;;;;;;-144.47;45.41;53237.44;4986940;28;20021;-66
2022/05/21 10:17:43;;;;;;;5.35;1.90;;;;;;;-144.47;45.80;53265.25;5003891;28;20044;-65
2022/05/21 10:20:38;;;;;;;7.85;2.00;;;;;;;-144.47;45.90;53259.31;5002445;28;20027;-69
2022/05/21 10:23:29;;;;;;;7.93;2.22;;;;;;;-144.47;46.11;53299.03;4996584;28;20037;-66
2022/05/21 10:26:16;;;;;;;6.20;1.95;;;;;;;-144.47;46.14;53279.16;5008489;28;20100;-62
2022/05/21 10:28:56;;;;;;;9.30;2.78;;;;;;;-144.47;45.61;53318.91;4994093;28;20038;-67
2022/05/21 10:31:37;;;;;;;5.45;2.30;;;;;;;-144.47;46.08;53279.16;4994368;28;20489;-66
2022/05/21 10:34:28;;;;;;;10.13;2.55;;;;;;;-144.47;46.04;53241.44;4991572;28;20029;-66
2022/05/21 10:37:24;;;;;;;4.53;2.22;;;;;;;-144.47;46.13;53281.16;4993255;28;21226;-67
2022/05/21 10:40:21;;;;;;;11.50;2.72;;;;;;;-144.47;46.19;53269.22;4991799;28;20022;-65
2022/05/21 10:43:09;;;;;;;5.50;1.70;;;;;;;-144.47;44.75;53281.16;4991716;28;20085;-67
2022/05/21 10:45:46;;;;;;;4.43;1.83;;;;;;;-144.47;45.42;53253.34;4991533;28;20113;-65
2022/05/21 10:48:35;;;;;;;4.93;1.80;;;;;;;-144.47;44.41;53328.81;4992919;28;20144;-67
2022/05/21 10:51:11;;;;;;;7.38;1.75;;;;;;;-144.47;44.18;53275.19;4993641;28;20088;-65
2022/05/21 10:53:39;;;;;;;8.15;1.23;;;;;;;-144.47;44.14;53259.31;4997397;28;20040;-66
2022/05/21 10:56:07;;;;;;;4.45;1.88;;;;;;;-144.47;43.44;53271.22;5001997;28;20160;-65
2022/05/21 10:58:38;;;;;;;4.67;1.47;;;;;;;-144.47;43.95;53312.94;4993015;28;20420;-64
2022/05/21 11:02:03;;;;;;;3.97;1.40;;;;;;;-144.47;44.17;53237.44;4995699;28;20124;-64
2022/05/21 11:04:47;;;;;;;5.88;1.48;;;;;;;-144.47;42.89;53245.41;5004105;28;20512;-66
2022/05/21 11:07:34;;;;;;;4.95;1.67;;;;;;;-144.47;43.99;53305.00;5010996;28;20259;-65
2022/05/21 11:10:29;;;;;;;3.72;1.77;;;;;;;-144.47;44.38;53305.00;5007742;28;20021;-65
2022/05/21 11:12:59;;;;;;;6.43;1.60;;;;;;;-144.47;44.36;53295.06;4982103;28;20038;-65
2022/05/21 11:15:43;;;;;;;4.60;1.52;;;;;;;-144.47;44.54;53251.34;5011939;28;20104;-67
2022/05/21 11:18:24;;;;;;;2.92;1.35;;;;;;;-144.47;44.88;53295.06;5010635;28;20026;-66
2022/05/21 11:21:02;;;;;;;10.68;1.92;;;;;;;-144.47;44.86;53305.00;5012184;28;20028;-65
2022/05/21 11:23:36;;;;;;;;;;;;;;;-144.47;45.35;53316.91;4989272;28;20025;-66
2022/05/21 11:26:10;;;;;;;12.98;1.80;;;;;;;-144.47;44.98;53322.88;5010952;28;19913;-65
2022/05/21 11:29:05;;;;;;;5.25;1.25;;;;;;;-144.47;45.20;53253.34;5003655;28;20025;-67
2022/05/21 11:37:50;;;;;;;4.33;1.50;;;;;;;-144.47;45.96;53273.22;5003816;28;20141;-65
2022/05/21 11:41:24;;;;;;;10.20;1.98;;;;;;;-144.47;46.28;53305.00;5011580;28;20091;-65
2022/05/21 11:47:15;;;;;;;12.15;1.98;;;;;;;-144.47;46.10;53301.03;4972218;28;20036;-65
2022/05/21 11:50:10;;;;;;;6.90;1.95;;;;;;;-144.47;45.58;53297.03;4967015;28;20077;-66
2022/05/21 11:52:35;;;;;;;4.68;1.83;;;;;;;-144.47;44.75;53301.03;4995740;28;20140;-64
2022/05/21 11:55:13;;;;;;;4.78;1.73;;;;;;;-144.47;44.61;53279.16;4994175;28;20354;-66
2022/05/21 11:57:42;;;;;;;2.47;1.50;;;;;;;-144.47;44.67;53281.16;4999301;28;20034;-63
2022/05/21 12:00:16;;;;;;;5.20;1.70;;;;;;;-144.47;43.73;53289.09;4991277;28;20038;-66
2022/05/21 12:02:54;;;;;;;4.75;1.67;;;;;;;-144.47;42.79;53271.22;4997100;28;20467;-65
2022/05/21 12:05:37;;;;;;;3.20;1.45;;;;;;;-144.47;42.56;53277.19;4997295;28;20501;-65
2022/05/21 12:08:23;;;;;;;3.92;1.50;;;;;;;-144.47;42.61;53261.28;4994860;28;20078;-65
2022/05/21 12:11:18;;;;;;;3.55;1.70;;;;;;;-144.47;40.99;53289.09;4986194;28;20037;-65
2022/05/21 12:14:21;;;;;;;5.63;1.77;;;;;;;-144.47;41.87;53277.19;4993073;28;20354;-68
2022/05/21 12:16:50;;;;;;;6.60;1.98;;;;;;;-144.47;42.20;53285.13;4993070;28;20139;-64
2022/05/21 12:19:33;;;;;;;;;;;;;;;-144.47;41.70;53279.16;4993542;28;20428;-65
2022/05/21 12:22:01;;;;;;;4.72;1.63;;;;;;;-144.47;41.85;53275.19;4994081;28;19958;-65
2022/05/21 12:24:39;;;;;;;6.07;1.65;;;;;;;-144.47;42.41;53251.34;4995867;28;20025;-67
2022/05/21 12:27:21;;;;;;;4.20;1.80;;;;;;;-144.47;42.34;53235.47;4996444;28;20039;-69
2022/05/21 12:29:51;;;;;;;6.47;1.88;;;;;;;-144.47;42.11;53225.53;4991990;28;20124;-66
2022/05/21 12:32:23;;;;;;;6.65;1.92;;;;;;;-144.47;42.59;53269.22;4992661;28;20153;-66